Time;durP1;ratioP1;P1;durP2;ratioP2;P2;SDS_P1;SDS_P2;PMS_P1;PMS_P2;Temp;Humidity;BMP_temperature;BMP_pressure;BME280_temperature;BME280_humidity;BME280_pressure;Samples;Min_cycle;Max_cycle;Signal;HPM_P1;HPM_P2
2024/02/22 00:02:21;;;;;;;4.90;2.40;;;4.10;99.90;;;;;;5102794;28;20040;-62
2024/02/22 00:04:48;;;;;;;2.63;2.42;;;4.10;99.90;;;;;;5107647;28;20048;-60
2024/02/22 00:07:16;;;;;;;2.83;2.55;;;4.10;99.90;;;;;;5103527;28;20043;-63
2024/02/22 00:09:43;;;;;;;2.95;2.47;;;4.10;99.90;;;;;;5108202;28;20039;-59
2024/02/22 00:12:10;;;;;;;3.10;2.88;;;4.10;99.90;;;;;;5109961;28;20052;-59
2024/02/22 00:14:39;;;;;;;2.63;2.42;;;4.10;99.90;;;;;;5108134;28;20047;-60
2024/02/22 00:17:07;;;;;;;2.80;2.60;;;4.10;99.90;;;;;;5108306;28;20044;-62
2024/02/22 00:19:35;;;;;;;2.20;2.00;;;4.10;99.90;;;;;;5107187;28;20130;-58
2024/02/22 00:22:02;;;;;;;2.50;2.30;;;4.10;99.90;;;;;;5110297;28;20570;-60
2024/02/22 00:24:29;;;;;;;2.53;2.33;;;4.10;99.90;;;;;;5107909;28;20046;-60
2024/02/22 00:26:56;;;;;;;2.75;2.08;;;4.10;99.90;;;;;;5102850;28;20089;-59
2024/02/22 00:29:23;;;;;;;2.45;2.25;;;4.10;99.90;;;;;;5105870;28;20044;-61
2024/02/22 00:31:50;;;;;;;2.22;1.92;;;4.10;99.90;;;;;;5107095;28;20055;-67
2024/02/22 00:34:17;;;;;;;2.22;1.73;;;4.10;99.90;;;;;;5105438;28;20044;-60
2024/02/22 00:36:44;;;;;;;1.70;1.60;;;4.10;99.90;;;;;;5100272;28;20138;-59
2024/02/22 00:39:11;;;;;;;1.90;1.67;;;4.10;99.90;;;;;;5105544;28;20105;-67
2024/02/22 00:41:40;;;;;;;2.30;2.10;;;4.10;99.90;;;;;;5109733;28;20035;-59
2024/02/22 00:44:07;;;;;;;1.77;1.67;;;4.10;99.90;;;;;;5109804;28;20483;-62
2024/02/22 00:46:35;;;;;;;1.55;1.45;;;4.20;99.90;;;;;;5109089;28;20142;-67
2024/02/22 00:49:03;;;;;;;1.55;1.45;;;4.10;99.90;;;;;;5107802;28;20031;-62
2024/02/22 00:51:30;;;;;;;1.88;1.75;;;4.10;99.90;;;;;;5109226;28;20078;-60
2024/02/22 00:53:57;;;;;;;2.53;2.33;;;4.10;99.90;;;;;;5110308;28;20035;-60
2024/02/22 00:56:24;;;;;;;2.60;2.33;;;4.10;99.90;;;;;;5112634;28;20067;-60
2024/02/22 00:58:51;;;;;;;2.97;2.78;;;4.10;99.90;;;;;;5111142;28;20039;-61
2024/02/22 01:01:18;;;;;;;4.53;4.07;;;4.10;99.90;;;;;;5111673;28;20511;-62
2024/02/22 01:03:45;;;;;;;4.45;3.65;;;4.10;99.90;;;;;;5111573;28;20063;-60
2024/02/22 01:06:15;;;;;;;3.70;3.33;;;4.10;99.90;;;;;;5111328;28;20067;-60
2024/02/22 01:08:42;;;;;;;4.45;4.05;;;4.10;99.90;;;;;;5108881;28;20044;-62
2024/02/22 01:11:09;;;;;;;3.78;3.47;;;4.10;99.90;;;;;;5105939;28;20050;-59
2024/02/22 01:13:36;;;;;;;3.97;3.58;;;4.10;99.90;;;;;;5109721;28;20127;-59
2024/02/22 01:16:03;;;;;;;4.38;3.97;;;4.10;99.90;;;;;;5110809;28;20069;-65
2024/02/22 01:18:30;;;;;;;4.95;4.45;;;4.10;99.90;;;;;;5111074;28;20054;-60
2024/02/22 01:20:57;;;;;;;4.63;4.22;;;4.10;99.90;;;;;;5111332;28;20407;-59
2024/02/22 01:23:24;;;;;;;4.43;3.90;;;4.10;99.90;;;;;;5111505;28;20839;-60
2024/02/22 01:25:51;;;;;;;4.28;3.88;;;4.10;99.90;;;;;;5112864;28;20044;-60
2024/02/22 01:28:18;;;;;;;4.32;3.92;;;4.00;99.90;;;;;;5112072;28;20070;-58
2024/02/22 01:30:45;;;;;;;4.78;4.25;;;4.10;99.90;;;;;;5109690;28;20040;-67
2024/02/22 01:33:12;;;;;;;7.03;5.18;;;4.10;99.90;;;;;;5111344;28;20039;-59
2024/02/22 01:35:39;;;;;;;5.85;3.88;;;4.10;99.90;;;;;;5107189;28;20143;-59
2024/02/22 01:38:07;;;;;;;4.60;4.18;;;4.10;99.90;;;;;;5108572;28;20415;-61
2024/02/22 01:40:34;;;;;;;4.25;3.67;;;4.10;99.90;;;;;;5103859;28;20047;-60
2024/02/22 01:43:01;;;;;;;5.45;4.40;;;4.10;99.90;;;;;;5106388;28;20047;-61
2024/02/22 01:45:28;;;;;;;5.13;4.00;;;4.10;99.90;;;;;;5104465;28;20693;-67
2024/02/22 01:47:55;;;;;;;5.40;4.25;;;4.10;99.90;;;;;;5111333;28;20053;-59
2024/02/22 01:50:24;;;;;;;3.88;3.47;;;4.10;99.90;;;;;;5111248;28;20093;-66
2024/02/22 01:52:52;;;;;;;5.43;4.78;;;4.10;99.90;;;;;;5111269;27;20393;-63
2024/02/22 01:55:20;;;;;;;6.35;4.35;;;4.10;99.90;;;;;;5111396;28;20387;-60
2024/02/22 01:57:49;;;;;;;6.72;5.25;;;4.10;99.90;;;;;;5093285;28;20051;-61
2024/02/22 02:00:17;;;;;;;6.07;4.30;;;4.10;99.90;;;;;;5111619;28;20043;-60
2024/02/22 02:02:47;;;;;;;5.75;4.60;;;4.10;99.90;;;;;;5108292;28;20046;-58
2024/02/22 02:05:15;;;;;;;5.55;5.05;;;4.10;99.90;;;;;;5111852;28;20051;-60
2024/02/22 02:07:42;;;;;;;6.47;5.10;;;4.10;99.90;;;;;;5110954;28;20050;-62
2024/02/22 02:10:09;;;;;;;5.80;5.20;;;4.10;99.90;;;;;;5112221;28;20097;-62
2024/02/22 02:12:37;;;;;;;5.97;5.38;;;4.10;99.90;;;;;;5109076;28;20039;-59
2024/02/22 02:15:05;;;;;;;6.10;5.47;;;4.10;99.90;;;;;;5111193;28;20043;-59
2024/02/22 02:17:33;;;;;;;6.10;5.07;;;4.10;99.90;;;;;;5112187;28;20052;-60
2024/02/22 02:20:07;;;;;;;7.32;6.50;;;4.10;99.90;;;;;;5111177;28;20048;-59
2024/02/22 02:22:43;;;;;;;7.20;6.28;;;4.10;99.90;;;;;;5106440;28;20914;-60
2024/02/22 02:25:11;;;;;;;7.63;6.43;;;4.10;99.90;;;;;;5105191;28;20067;-61
2024/02/22 02:27:38;;;;;;;8.65;6.00;;;4.10;99.90;;;;;;5110015;28;20123;-60
2024/02/22 02:30:05;;;;;;;7.75;6.18;;;4.20;99.90;;;;;;5107671;28;20058;-60
2024/02/22 02:32:33;;;;;;;8.10;6.63;;;4.20;99.90;;;;;;5111765;28;20491;-60
2024/02/22 02:35:00;;;;;;;7.80;5.68;;;4.20;99.90;;;;;;5107806;28;20051;-60
2024/02/22 02:37:27;;;;;;;7.75;5.97;;;4.20;99.90;;;;;;5111221;28;20039;-61
2024/02/22 02:39:54;;;;;;;9.48;6.30;;;4.20;99.90;;;;;;5111461;28;20047;-63
2024/02/22 02:42:21;;;;;;;8.73;6.82;;;4.20;99.90;;;;;;5106668;28;20052;-62
2024/02/22 02:44:48;;;;;;;8.40;6.03;;;4.20;99.90;;;;;;5111479;28;20425;-59
2024/02/22 02:47:16;;;;;;;6.90;5.55;;;4.20;99.90;;;;;;5109081;28;20043;-60
2024/02/22 02:49:43;;;;;;;8.13;6.63;;;4.10;99.90;;;;;;5110393;28;20044;-60
2024/02/22 02:52:10;;;;;;;7.15;5.63;;;4.20;99.90;;;;;;5110513;28;20039;-60
2024/02/22 02:54:36;;;;;;;11.23;6.57;;;4.20;99.90;;;;;;5108303;28;20039;-61
2024/02/22 02:57:03;;;;;;;10.25;6.50;;;4.20;99.90;;;;;;5108748;28;20043;-61
2024/02/22 02:59:30;;;;;;;9.52;6.38;;;4.20;99.90;;;;;;5104539;28;20554;-59
2024/02/22 03:01:57;;;;;;;7.15;5.25;;;4.20;99.90;;;;;;5106665;28;20036;-61
2024/02/22 03:04:24;;;;;;;8.27;5.95;;;4.20;99.90;;;;;;5092109;28;20044;-61
2024/02/22 03:06:51;;;;;;;10.90;6.90;;;4.20;99.90;;;;;;5110732;28;20043;-61
2024/02/22 03:09:18;;;;;;;8.32;7.10;;;4.10;99.90;;;;;;5105940;28;20051;-62
2024/02/22 03:11:45;;;;;;;8.40;6.63;;;4.10;99.90;;;;;;5109731;28;20051;-61
2024/02/22 03:14:12;;;;;;;10.43;7.75;;;4.10;99.90;;;;;;5105607;28;20040;-60
2024/02/22 03:16:39;;;;;;;9.68;6.38;;;4.10;99.90;;;;;;5105441;28;20054;-63
2024/02/22 03:19:06;;;;;;;10.57;5.78;;;4.10;99.90;;;;;;5107163;28;20097;-62
2024/02/22 03:21:33;;;;;;;7.93;6.00;;;4.10;99.90;;;;;;5106556;28;20519;-62
2024/02/22 03:24:01;;;;;;;7.68;5.22;;;4.10;99.90;;;;;;5105419;28;20035;-64
2024/02/22 03:26:27;;;;;;;7.03;6.03;;;4.10;99.90;;;;;;5107783;28;20084;-60
2024/02/22 03:28:55;;;;;;;5.63;4.63;;;4.10;99.90;;;;;;5108310;28;20039;-60
2024/02/22 03:31:22;;;;;;;7.00;5.90;;;4.10;99.90;;;;;;5108211;28;20047;-65
2024/02/22 03:33:50;;;;;;;7.00;4.93;;;4.10;99.90;;;;;;5108466;28;20039;-61
2024/02/22 03:36:17;;;;;;;6.22;4.70;;;4.00;99.90;;;;;;5108779;28;20051;-58
2024/02/22 03:38:44;;;;;;;8.23;4.68;;;4.00;99.90;;;;;;5107057;28;20136;-63
2024/02/22 03:41:26;;;;;;;4.93;3.75;;;4.00;99.90;;;;;;5107244;28;20043;-62
2024/02/22 03:43:54;;;;;;;6.07;3.90;;;3.90;99.90;;;;;;5106950;28;20044;-62
2024/02/22 03:46:21;;;;;;;4.07;3.20;;;3.90;99.90;;;;;;5106122;28;20047;-66
2024/02/22 03:48:48;;;;;;;5.10;3.53;;;3.90;99.90;;;;;;5106489;28;20048;-59
2024/02/22 03:51:15;;;;;;;7.50;3.63;;;3.80;99.90;;;;;;5107263;28;20097;-62
2024/02/22 03:53:43;;;;;;;6.18;3.72;;;3.80;99.90;;;;;;5107824;28;20031;-60
2024/02/22 03:56:10;;;;;;;4.40;3.95;;;3.70;99.90;;;;;;5109625;28;20043;-59
2024/02/22 03:58:39;;;;;;;4.63;3.92;;;3.70;99.90;;;;;;5107202;28;20044;-60
2024/02/22 04:01:06;;;;;;;4.00;3.50;;;3.60;99.90;;;;;;5105603;28;20054;-61
2024/02/22 04:03:34;;;;;;;8.07;4.20;;;3.60;99.90;;;;;;5107074;28;20101;-59
2024/02/22 04:06:01;;;;;;;6.47;4.43;;;3.50;99.90;;;;;;5108889;28;20093;-65
2024/02/22 04:08:28;;;;;;;4.93;3.72;;;3.50;99.90;;;;;;5102525;28;20101;-65
2024/02/22 04:10:55;;;;;;;5.45;4.30;;;3.40;99.90;;;;;;5107958;28;20039;-63
2024/02/22 04:13:22;;;;;;;6.28;3.95;;;3.40;99.90;;;;;;5101444;28;20609;-61
2024/02/22 04:15:49;;;;;;;8.15;4.55;;;3.40;99.90;;;;;;5107248;28;20599;-63
2024/02/22 04:18:16;;;;;;;6.72;4.55;;;3.40;99.90;;;;;;5108901;28;20040;-61
2024/02/22 04:20:43;;;;;;;6.00;4.57;;;3.40;99.90;;;;;;5106445;28;20044;-60
2024/02/22 04:23:10;;;;;;;7.65;4.93;;;3.40;99.90;;;;;;5106221;28;20100;-68
2024/02/22 04:25:39;;;;;;;8.50;4.20;;;3.40;99.90;;;;;;5111430;28;20040;-62
2024/02/22 04:28:06;;;;;;;6.65;4.60;;;3.40;99.90;;;;;;5107597;28;20043;-60
2024/02/22 04:30:33;;;;;;;12.30;4.85;;;3.40;99.90;;;;;;5105377;28;20048;-63
2024/02/22 04:33:00;;;;;;;6.95;5.13;;;3.40;99.90;;;;;;5110003;28;20116;-59
2024/02/22 04:35:27;;;;;;;8.18;3.72;;;3.40;99.90;;;;;;5110630;28;20048;-59
2024/02/22 04:37:54;;;;;;;7.18;3.92;;;3.40;99.90;;;;;;5109823;28;20036;-68
2024/02/22 04:40:21;;;;;;;10.93;4.82;;;3.40;99.90;;;;;;5110043;28;20032;-61
2024/02/22 04:42:48;;;;;;;11.90;4.15;;;3.30;99.90;;;;;;5108659;28;20067;-59
2024/02/22 04:45:15;;;;;;;7.88;5.88;;;3.30;99.90;;;;;;5092254;28;20102;-63
2024/02/22 04:47:42;;;;;;;8.32;4.20;;;3.30;99.90;;;;;;5112688;28;20089;-60
2024/02/22 04:50:09;;;;;;;8.40;4.47;;;3.20;99.90;;;;;;5109264;28;20394;-59
2024/02/22 04:52:36;;;;;;;9.07;5.80;;;3.20;99.90;;;;;;5106192;28;20043;-62
2024/02/22 04:55:04;;;;;;;8.10;5.13;;;3.20;99.90;;;;;;5106901;28;20574;-61
2024/02/22 04:57:31;;;;;;;12.82;5.95;;;3.20;99.90;;;;;;5112434;28;20043;-61
2024/02/22 04:59:58;;;;;;;12.10;5.18;;;3.10;99.90;;;;;;5113189;28;20047;-59
2024/02/22 05:02:25;;;;;;;10.32;5.78;;;3.10;99.90;;;;;;5110742;28;20051;-62
2024/02/22 05:04:52;;;;;;;7.78;4.75;;;3.10;99.90;;;;;;5112890;28;20483;-60
2024/02/22 05:07:19;;;;;;;11.45;5.10;;;3.00;99.90;;;;;;5111972;28;20093;-65
2024/02/22 05:09:46;;;;;;;6.32;4.00;;;3.00;99.90;;;;;;5112826;28;20047;-59
2024/02/22 05:12:13;;;;;;;6.95;4.80;;;2.90;99.90;;;;;;5111171;28;20048;-59
2024/02/22 05:14:44;;;;;;;6.25;4.57;;;2.90;99.90;;;;;;5110719;28;20063;-61
2024/02/22 05:17:12;;;;;;;8.45;5.10;;;2.80;99.90;;;;;;5112980;28;20055;-58
2024/02/22 05:19:40;;;;;;;10.32;4.53;;;2.80;99.90;;;;;;5111759;28;20397;-59
2024/02/22 05:22:07;;;;;;;7.45;4.65;;;2.80;99.90;;;;;;5094554;28;20109;-58
2024/02/22 05:24:34;;;;;;;7.00;6.13;;;2.70;99.90;;;;;;5112623;28;20078;-61
2024/02/22 05:27:01;;;;;;;7.65;5.20;;;2.70;99.90;;;;;;5107824;28;20052;-62
2024/02/22 05:29:28;;;;;;;9.52;4.85;;;2.70;99.90;;;;;;5110988;28;20051;-60
2024/02/22 05:31:57;;;;;;;5.95;4.75;;;2.70;99.90;;;;;;5104049;28;20052;-60
2024/02/22 05:34:25;;;;;;;5.43;3.90;;;2.60;99.90;;;;;;5110917;28;20044;-61
2024/02/22 05:36:52;;;;;;;7.85;4.10;;;2.60;99.90;;;;;;5111718;28;20062;-58
2024/02/22 05:39:19;;;;;;;7.28;5.55;;;2.50;99.90;;;;;;5109018;28;20036;-60
2024/02/22 05:41:46;;;;;;;8.95;5.07;;;2.50;99.90;;;;;;5111362;28;20036;-61
2024/02/22 05:44:13;;;;;;;11.15;4.88;;;2.50;99.90;;;;;;5109491;28;20094;-59
2024/02/22 05:46:40;;;;;;;7.03;4.57;;;2.50;99.90;;;;;;5102097;28;20042;-58
2024/02/22 05:49:07;;;;;;;5.13;3.92;;;2.50;99.90;;;;;;5108948;28;20078;-59
2024/02/22 05:51:35;;;;;;;7.43;3.75;;;2.50;99.90;;;;;;5111516;28;20177;-60
2024/02/22 05:54:02;;;;;;;5.65;4.20;;;2.50;99.90;;;;;;5110884;28;20036;-59
2024/02/22 05:56:29;;;;;;;13.75;4.45;;;2.50;99.90;;;;;;5109863;28;20047;-62
2024/02/22 05:58:56;;;;;;;9.63;4.20;;;2.50;99.90;;;;;;5110437;28;20067;-59
2024/02/22 06:01:23;;;;;;;7.78;3.92;;;2.50;99.90;;;;;;5111231;28;20040;-61
2024/02/22 06:03:50;;;;;;;6.57;4.10;;;2.40;99.90;;;;;;5110370;28;20040;-65
2024/02/22 06:06:17;;;;;;;8.55;4.32;;;2.40;99.90;;;;;;5109415;28;20093;-58
2024/02/22 06:08:44;;;;;;;6.47;3.53;;;2.40;99.90;;;;;;5111865;28;20098;-60
2024/02/22 06:11:15;;;;;;;5.63;3.42;;;2.40;99.90;;;;;;5107220;28;20048;-59
2024/02/22 06:13:43;;;;;;;6.18;3.70;;;2.30;99.90;;;;;;5104802;28;20114;-59
2024/02/22 06:16:10;;;;;;;6.10;3.67;;;2.40;99.90;;;;;;5109984;28;20143;-59
2024/02/22 06:18:37;;;;;;;5.32;4.40;;;2.30;99.90;;;;;;5110336;28;20123;-59
2024/02/22 06:21:06;;;;;;;9.05;4.45;;;2.30;99.90;;;;;;5111274;28;20126;-59
2024/02/22 06:23:34;;;;;;;5.70;3.53;;;2.30;99.90;;;;;;5108199;28;20055;-59
2024/02/22 06:26:03;;;;;;;7.63;4.30;;;2.30;99.90;;;;;;5109748;28;20036;-60
2024/02/22 06:28:33;;;;;;;9.07;5.47;;;2.30;99.90;;;;;;5109596;28;20044;-58
2024/02/22 06:31:00;;;;;;;6.90;3.28;;;2.30;99.90;;;;;;5109073;28;20415;-58
2024/02/22 06:33:27;;;;;;;7.18;3.78;;;2.30;99.90;;;;;;5108040;28;20073;-61
2024/02/22 06:35:55;;;;;;;6.60;3.83;;;2.30;99.90;;;;;;5103228;28;20405;-59
2024/02/22 06:38:23;;;;;;;8.65;3.90;;;2.30;99.90;;;;;;5110050;28;20039;-62
2024/02/22 06:40:51;;;;;;;8.82;2.60;;;2.40;99.90;;;;;;5108841;28;20512;-61
2024/02/22 06:43:18;;;;;;;8.77;3.20;;;2.40;99.90;;;;;;5108635;28;20047;-61
2024/02/22 06:45:45;;;;;;;5.65;3.90;;;2.50;99.90;;;;;;5105375;28;20523;-63
2024/02/22 06:48:12;;;;;;;9.85;3.40;;;2.50;99.90;;;;;;5106853;28;20044;-64
2024/02/22 06:50:40;;;;;;;9.50;4.43;;;2.60;99.90;;;;;;5109862;28;20783;-60
2024/02/22 06:53:07;;;;;;;8.85;3.58;;;2.60;99.90;;;;;;5110791;28;20152;-62
2024/02/22 06:55:34;;;;;;;6.90;3.92;;;2.60;99.90;;;;;;5107107;28;20051;-64
2024/02/22 06:58:04;;;;;;;5.60;3.03;;;2.60;99.90;;;;;;5109298;28;20047;-61
2024/02/22 07:00:32;;;;;;;4.22;2.80;;;2.60;99.90;;;;;;5108624;28;20456;-61
2024/02/22 07:03:00;;;;;;;6.50;3.13;;;2.60;99.90;;;;;;5110274;28;20075;-61
2024/02/22 07:05:31;;;;;;;6.55;3.55;;;2.70;99.90;;;;;;5109446;28;20045;-60
2024/02/22 07:07:59;;;;;;;6.07;2.65;;;2.70;99.90;;;;;;5110315;28;20059;-62
2024/02/22 07:10:26;;;;;;;7.20;2.85;;;2.80;99.90;;;;;;5105689;28;20118;-61
2024/02/22 07:12:55;;;;;;;9.88;3.50;;;2.70;99.90;;;;;;5106580;28;20566;-61
2024/02/22 07:15:23;;;;;;;7.72;3.97;;;2.80;99.90;;;;;;5109948;28;20471;-61
2024/02/22 07:17:50;;;;;;;8.57;3.47;;;2.80;99.90;;;;;;5108273;28;20122;-64
2024/02/22 07:20:17;;;;;;;4.88;3.10;;;2.80;99.90;;;;;;5101923;28;20044;-67
2024/02/22 07:22:45;;;;;;;8.85;4.30;;;2.90;99.90;;;;;;5097679;28;20042;-61
2024/02/22 07:25:12;;;;;;;10.52;3.50;;;2.90;99.90;;;;;;5102010;28;20043;-61
2024/02/22 07:27:40;;;;;;;11.15;4.28;;;2.90;99.90;;;;;;5106437;28;20171;-61
2024/02/22 07:30:08;;;;;;;13.98;5.28;;;3.00;99.90;;;;;;5106973;28;20118;-60
2024/02/22 07:32:35;;;;;;;9.60;4.45;;;3.00;99.90;;;;;;5106560;28;20040;-59
2024/02/22 07:35:03;;;;;;;7.15;4.25;;;3.00;99.90;;;;;;5090859;28;20119;-61
2024/02/22 07:37:30;;;;;;;9.60;4.10;;;3.00;99.90;;;;;;5107382;28;20052;-61
2024/02/22 07:39:57;;;;;;;18.98;4.60;;;3.10;99.90;;;;;;5109473;28;20100;-61
2024/02/22 07:42:24;;;;;;;11.45;4.85;;;3.10;99.90;;;;;;5108315;28;20498;-64
2024/02/22 07:44:51;;;;;;;9.23;4.72;;;3.20;99.90;;;;;;5108826;28;20651;-61
2024/02/22 07:47:18;;;;;;;13.07;4.72;;;3.20;99.90;;;;;;5107250;28;20342;-60
2024/02/22 07:49:45;;;;;;;13.23;5.30;;;3.20;99.90;;;;;;5107662;28;20062;-61
2024/02/22 07:52:13;;;;;;;8.10;4.88;;;3.20;99.90;;;;;;5106174;28;20093;-60
2024/02/22 07:54:40;;;;;;;7.63;4.13;;;3.30;99.90;;;;;;5106163;28;20737;-60
2024/02/22 07:57:08;;;;;;;10.70;5.18;;;3.40;99.90;;;;;;5108924;28;20135;-62
2024/02/22 07:59:35;;;;;;;6.40;3.60;;;3.40;99.90;;;;;;5107763;28;20564;-62
2024/02/22 08:02:02;;;;;;;11.60;4.20;;;3.50;99.90;;;;;;5108058;28;20040;-60
2024/02/22 08:04:29;;;;;;;12.52;3.72;;;3.50;99.90;;;;;;5107826;28;20112;-61
2024/02/22 08:06:56;;;;;;;9.70;3.58;;;3.60;99.90;;;;;;5108374;28;20118;-60
2024/02/22 08:09:24;;;;;;;11.95;4.30;;;3.60;99.90;;;;;;5108190;28;20466;-63
2024/02/22 08:11:51;;;;;;;6.65;4.15;;;3.70;99.90;;;;;;5109722;28;20122;-61
2024/02/22 08:14:18;;;;;;;11.68;4.40;;;3.70;99.90;;;;;;5105111;28;20039;-61
2024/02/22 08:16:46;;;;;;;9.30;4.20;;;3.80;99.90;;;;;;5107324;28;20183;-62
2024/02/22 08:19:13;;;;;;;15.90;5.30;;;3.90;99.90;;;;;;5089087;28;20074;-62
2024/02/22 08:21:41;;;;;;;6.30;3.60;;;4.00;99.90;;;;;;5106882;28;20052;-62
2024/02/22 08:24:10;;;;;;;7.10;5.15;;;4.00;99.90;;;;;;5108418;28;20126;-62
2024/02/22 08:26:38;;;;;;;8.48;4.45;;;4.10;99.90;;;;;;5109328;28;20444;-62
2024/02/22 08:29:05;;;;;;;11.55;4.30;;;4.20;99.90;;;;;;5108304;28;20039;-60
2024/02/22 08:31:32;;;;;;;11.00;4.85;;;4.30;99.90;;;;;;5105835;28;20043;-61
2024/02/22 08:33:59;;;;;;;9.90;5.18;;;4.30;99.90;;;;;;5108803;28;20035;-63
2024/02/22 08:36:26;;;;;;;10.88;6.00;;;4.40;99.90;;;;;;5108159;28;20066;-61
2024/02/22 08:38:54;;;;;;;9.30;5.00;;;4.40;99.90;;;;;;5108930;28;20140;-60
2024/02/22 08:41:22;;;;;;;15.27;5.43;;;4.50;99.90;;;;;;5106619;28;20047;-61
2024/02/22 08:43:49;;;;;;;14.07;6.13;;;4.50;99.90;;;;;;5107212;28;20067;-63
2024/02/22 08:46:16;;;;;;;11.32;4.40;;;4.60;99.90;;;;;;5107312;28;20040;-60
2024/02/22 08:48:43;;;;;;;7.78;4.00;;;4.60;99.90;;;;;;5104749;28;20048;-61
2024/02/22 08:51:13;;;;;;;14.43;4.43;;;4.70;99.90;;;;;;5109035;28;20048;-63
2024/02/22 08:53:40;;;;;;;10.60;4.90;;;4.80;99.90;;;;;;5108815;28;20047;-61
2024/02/22 08:56:10;;;;;;;9.88;5.07;;;4.80;99.90;;;;;;5106923;28;20046;-60
2024/02/22 08:58:42;;;;;;;8.70;4.32;;;4.80;99.90;;;;;;5108218;28;20044;-62
2024/02/22 09:01:09;;;;;;;14.48;5.10;;;4.90;99.90;;;;;;5106860;28;20054;-61
2024/02/22 09:03:36;;;;;;;11.73;5.13;;;4.90;99.90;;;;;;5107858;28;20487;-60
2024/02/22 09:06:03;;;;;;;22.00;5.53;;;5.00;99.90;;;;;;5108466;28;20062;-61
2024/02/22 09:08:31;;;;;;;11.20;3.90;;;5.00;99.90;;;;;;5108844;28;20050;-61
2024/02/22 09:10:58;;;;;;;19.20;5.82;;;5.10;99.90;;;;;;5111554;28;20048;-61
2024/02/22 09:13:25;;;;;;;11.45;5.60;;;5.10;99.90;;;;;;5111862;28;20047;-62
2024/02/22 09:15:52;;;;;;;19.35;5.35;;;5.10;99.90;;;;;;5108870;28;20036;-61
2024/02/22 09:18:19;;;;;;;14.18;6.18;;;5.20;99.90;;;;;;5109515;28;20544;-63
2024/02/22 09:20:48;;;;;;;13.05;6.22;;;5.20;99.90;;;;;;5112196;28;20040;-60
2024/02/22 09:23:16;;;;;;;16.63;5.57;;;5.20;99.90;;;;;;5109619;28;20050;-61
2024/02/22 09:25:43;;;;;;;19.92;5.07;;;5.30;99.90;;;;;;5112063;28;20043;-60
2024/02/22 09:28:11;;;;;;;17.35;6.45;;;5.30;99.90;;;;;;5107295;28;20423;-60
2024/02/22 09:30:38;;;;;;;11.73;5.07;;;5.30;99.90;;;;;;5108460;28;20100;-62
2024/02/22 09:33:05;;;;;;;16.92;5.47;;;5.40;99.90;;;;;;5111893;28;20047;-62
2024/02/22 09:35:34;;;;;;;9.27;4.82;;;5.40;99.90;;;;;;5111898;28;20068;-62
2024/02/22 09:38:01;;;;;;;14.30;4.78;;;5.40;99.90;;;;;;5109453;28;20411;-60
2024/02/22 09:40:31;;;;;;;15.80;6.35;;;5.50;99.90;;;;;;5110794;28;20039;-60
2024/02/22 09:43:00;;;;;;;17.55;5.60;;;5.50;99.90;;;;;;5109273;28;20116;-61
2024/02/22 09:45:27;;;;;;;18.40;6.78;;;5.60;99.90;;;;;;5110566;28;20040;-60
2024/02/22 09:47:54;;;;;;;9.57;4.50;;;5.70;99.90;;;;;;5110195;28;20101;-60
2024/02/22 09:50:21;;;;;;;10.73;4.15;;;5.80;99.90;;;;;;5107192;28;20437;-61
2024/02/22 09:52:48;;;;;;;11.52;5.28;;;5.80;99.90;;;;;;5111615;28;20051;-61
2024/02/22 09:55:17;;;;;;;16.63;7.82;;;5.90;99.90;;;;;;5110692;28;20043;-60
2024/02/22 09:57:44;;;;;;;22.10;6.10;;;6.00;99.90;;;;;;5111802;28;20043;-60
2024/02/22 10:00:14;;;;;;;8.43;4.93;;;6.10;99.90;;;;;;5111597;28;20047;-62
2024/02/22 10:02:46;;;;;;;14.27;6.28;;;6.20;99.90;;;;;;5109595;28;20066;-66
2024/02/22 10:05:13;;;;;;;14.00;6.53;;;6.40;99.90;;;;;;5110313;28;20051;-61
2024/02/22 10:07:41;;;;;;;14.15;6.25;;;6.40;99.90;;;;;;5111482;28;20035;-62
2024/02/22 10:10:08;;;;;;;12.48;5.68;;;6.50;99.90;;;;;;5110671;28;20093;-61
2024/02/22 10:12:35;;;;;;;16.38;4.72;;;6.70;99.90;;;;;;5109784;28;20059;-64
2024/02/22 10:15:08;;;;;;;10.68;5.88;;;6.70;99.90;;;;;;5110966;28;20097;-61
2024/02/22 10:17:37;;;;;;;15.88;4.82;;;6.80;99.90;;;;;;5108329;28;20092;-60
2024/02/22 10:20:09;;;;;;;13.85;5.95;;;6.80;99.90;;;;;;5108006;28;20131;-60
2024/02/22 10:22:37;;;;;;;11.10;5.65;;;6.90;99.90;;;;;;5111492;28;20051;-61
2024/02/22 10:25:15;;;;;;;15.55;6.90;;;6.90;99.90;;;;;;5111174;28;20475;-60
2024/02/22 10:27:49;;;;;;;11.85;5.93;;;6.90;99.90;;;;;;5109145;28;20108;-63
2024/02/22 10:30:18;;;;;;;23.02;8.65;;;7.00;99.90;;;;;;5109473;28;20551;-61
2024/02/22 10:32:47;;;;;;;17.33;6.55;;;7.00;99.90;;;;;;5110418;28;20051;-60
2024/02/22 10:35:15;;;;;;;15.45;6.93;;;7.10;99.90;;;;;;5110467;28;20364;-64
2024/02/22 10:37:42;;;;;;;17.42;7.43;;;7.10;99.90;;;;;;5107560;28;20444;-61
2024/02/22 10:40:11;;;;;;;17.13;7.20;;;7.10;99.90;;;;;;5109043;28;20039;-60
2024/02/22 10:42:39;;;;;;;18.88;7.28;;;7.10;99.90;;;;;;5110162;28;20442;-62
2024/02/22 10:45:10;;;;;;;17.67;7.47;;;7.10;99.90;;;;;;5109109;28;20085;-63
2024/02/22 10:47:37;;;;;;;16.63;8.80;;;7.10;99.90;;;;;;5109717;28;20043;-61
2024/02/22 10:50:06;;;;;;;12.75;6.68;;;7.10;99.90;;;;;;5109354;28;20039;-63
2024/02/22 10:52:41;;;;;;;21.77;10.43;;;7.10;99.90;;;;;;5108291;28;20100;-60
2024/02/22 10:55:15;;;;;;;22.20;9.25;;;7.00;99.90;;;;;;5110878;28;20046;-62
2024/02/22 10:57:47;;;;;;;16.30;6.68;;;6.90;99.90;;;;;;5099654;28;20040;-62
2024/02/22 11:00:15;;;;;;;19.13;8.77;;;7.00;99.90;;;;;;5107508;28;20134;-63
2024/02/22 11:02:46;;;;;;;19.63;9.88;;;7.00;99.90;;;;;;5110029;28;20124;-62
2024/02/22 11:05:14;;;;;;;14.30;6.80;;;7.10;99.90;;;;;;5106780;28;20096;-64
2024/02/22 11:07:47;;;;;;;17.27;8.90;;;7.20;99.90;;;;;;5105371;28;20459;-62
2024/02/22 11:10:14;;;;;;;28.50;9.60;;;7.30;99.90;;;;;;5109072;28;20075;-64
2024/02/22 11:12:44;;;;;;;14.00;10.13;;;7.30;99.90;;;;;;5106479;28;20048;-63
2024/02/22 11:15:13;;;;;;;13.90;8.00;;;7.40;99.90;;;;;;5091158;28;20088;-62
2024/02/22 11:17:55;;;;;;;18.00;8.98;;;7.60;99.90;;;;;;5107609;28;20142;-62
2024/02/22 11:20:34;;;;;;;14.25;8.98;;;7.60;99.90;;;;;;5109096;28;20047;-64
2024/02/22 11:23:14;;;;;;;14.77;7.88;;;7.50;99.90;;;;;;5109665;28;20043;-63
2024/02/22 11:25:42;;;;;;;14.43;8.27;;;7.60;99.90;;;;;;5108085;28;20486;-64
2024/02/22 11:28:10;;;;;;;13.85;7.93;;;7.70;99.90;;;;;;5108377;28;20112;-62
2024/02/22 11:30:37;;;;;;;12.57;7.20;;;7.70;99.90;;;;;;5109859;28;20130;-65
2024/02/22 11:33:07;;;;;;;17.95;8.18;;;7.70;99.90;;;;;;5108637;28;20054;-62
2024/02/22 11:35:34;;;;;;;19.83;8.40;;;7.70;99.90;;;;;;5107430;28;20055;-65
2024/02/22 11:38:04;;;;;;;14.40;8.88;;;7.70;99.90;;;;;;5106872;28;20043;-64
2024/02/22 11:40:34;;;;;;;19.17;7.90;;;7.70;99.90;;;;;;5108146;28;20042;-62
2024/02/22 11:43:03;;;;;;;24.23;9.85;;;7.60;99.90;;;;;;5108370;28;20047;-61
2024/02/22 11:45:31;;;;;;;19.42;10.45;;;7.60;99.90;;;;;;5108392;28;20379;-61
2024/02/22 11:47:59;;;;;;;18.00;11.60;;;7.60;99.90;;;;;;5108784;28;20051;-61
2024/02/22 11:50:28;;;;;;;21.15;11.63;;;7.60;99.90;;;;;;5108424;28;20067;-61
2024/02/22 11:52:58;;;;;;;20.92;12.45;;;7.50;99.90;;;;;;5109163;28;20044;-61
2024/02/22 11:55:26;;;;;;;22.02;12.18;;;7.50;99.90;;;;;;5108083;28;20452;-62
2024/02/22 11:57:53;;;;;;;17.42;11.25;;;7.60;99.90;;;;;;5108104;28;20044;-62
2024/02/22 12:00:20;;;;;;;24.60;12.90;;;7.60;99.90;;;;;;5108010;28;20048;-61
2024/02/22 12:02:47;;;;;;;17.38;11.63;;;7.70;99.90;;;;;;5106547;28;20510;-65
2024/02/22 12:05:17;;;;;;;19.65;12.65;;;7.60;99.90;;;;;;5105499;28;20446;-63
2024/02/22 12:07:46;;;;;;;24.88;12.80;;;7.50;99.90;;;;;;5106427;28;20131;-61
2024/02/22 12:10:13;;;;;;;22.00;13.10;;;7.50;99.90;;;;;;5108271;28;20096;-62
2024/02/22 12:12:40;;;;;;;16.70;13.68;;;7.40;99.90;;;;;;5104730;28;20414;-63
2024/02/22 12:15:07;;;;;;;20.13;12.75;;;7.30;99.90;;;;;;5107353;28;20260;-63
2024/02/22 12:17:41;;;;;;;24.48;14.57;;;7.20;99.90;;;;;;5107655;28;20040;-61
2024/02/22 12:20:12;;;;;;;20.73;13.57;;;7.10;99.90;;;;;;5107703;28;20048;-61
2024/02/22 12:22:47;;;;;;;22.85;12.98;;;7.10;99.90;;;;;;5107289;28;20069;-61
2024/02/22 12:25:14;;;;;;;22.92;12.70;;;7.00;99.90;;;;;;5105904;28;20126;-61
2024/02/22 12:27:41;;;;;;;20.42;12.90;;;7.10;99.90;;;;;;5105943;28;20057;-60
2024/02/22 12:30:09;;;;;;;25.08;15.98;;;7.00;99.90;;;;;;5101573;28;20082;-64
2024/02/22 12:32:49;;;;;;;22.92;16.73;;;7.00;99.90;;;;;;5109004;28;20043;-61
2024/02/22 12:35:17;;;;;;;22.38;14.38;;;7.00;99.90;;;;;;5107113;28;20031;-64
2024/02/22 12:37:45;;;;;;;23.77;14.85;;;7.00;99.90;;;;;;5106315;28;20059;-60
2024/02/22 12:40:13;;;;;;;28.98;17.05;;;7.00;99.90;;;;;;5107391;28;20048;-61
2024/02/22 12:42:40;;;;;;;30.02;16.65;;;7.00;99.90;;;;;;5107703;28;20039;-62
2024/02/22 12:45:07;;;;;;;25.15;15.73;;;7.00;99.90;;;;;;5111815;28;20040;-60
2024/02/22 12:47:34;;;;;;;27.05;13.90;;;6.90;99.90;;;;;;5112310;28;20043;-61
2024/02/22 12:50:01;;;;;;;34.08;17.08;;;6.90;99.90;;;;;;5111118;28;20075;-61
2024/02/22 12:52:28;;;;;;;37.00;20.27;;;6.80;99.90;;;;;;5112335;28;20048;-61
2024/02/22 12:54:55;;;;;;;28.23;17.90;;;6.80;99.90;;;;;;5112559;28;20054;-63
2024/02/22 12:57:22;;;;;;;28.38;20.35;;;6.80;99.90;;;;;;5110648;28;20101;-62